createdAt,value
2023-05-19T00:01:20.758Z,15.60
2023-05-19T00:03:59.149Z,15.50
2023-05-19T00:06:31.880Z,15.50
2023-05-19T00:09:04.044Z,15.50
2023-05-19T00:11:31.283Z,15.40
2023-05-19T00:13:59.950Z,15.40
2023-05-19T00:16:28.454Z,15.40
2023-05-19T00:18:57.152Z,15.40
2023-05-19T00:21:24.202Z,15.30
2023-05-19T00:23:51.156Z,15.30
2023-05-19T00:26:18.272Z,15.30
2023-05-19T00:28:55.350Z,15.30
2023-05-19T00:31:22.392Z,15.20
2023-05-19T00:33:49.336Z,15.20
2023-05-19T00:36:16.226Z,15.20
2023-05-19T00:38:43.139Z,15.20
2023-05-19T00:41:10.043Z,15.10
2023-05-19T00:43:36.981Z,15.10
2023-05-19T00:46:03.971Z,15.10
2023-05-19T00:48:31.049Z,15.10
2023-05-19T00:51:04.092Z,15.00
2023-05-19T00:53:33.510Z,15.00
2023-05-19T00:56:01.332Z,15.00
2023-05-19T00:58:30.302Z,14.90
2023-05-19T01:01:04.240Z,14.90
2023-05-19T01:03:35.033Z,14.90
2023-05-19T01:06:07.228Z,14.90
2023-05-19T01:08:36.318Z,14.90
2023-05-19T01:11:04.776Z,14.90
2023-05-19T01:13:32.164Z,14.80
2023-05-19T01:16:07.083Z,14.80
2023-05-19T01:18:49.168Z,14.70
2023-05-19T01:21:37.277Z,14.70
2023-05-19T01:24:22.947Z,14.60
2023-05-19T01:27:09.441Z,14.60
2023-05-19T01:29:49.657Z,14.60
2023-05-19T01:32:19.324Z,14.50
2023-05-19T01:34:48.884Z,14.50
2023-05-19T01:37:17.668Z,14.50
2023-05-19T01:39:47.399Z,14.40
2023-05-19T01:42:15.224Z,14.40
2023-05-19T01:44:42.734Z,14.40
2023-05-19T01:47:10.062Z,14.40
2023-05-19T01:49:36.985Z,14.30
2023-05-19T01:52:04.464Z,14.30
2023-05-19T01:54:31.471Z,14.30
2023-05-19T01:57:16.169Z,14.30
2023-05-19T02:00:03.785Z,14.30
2023-05-19T02:03:08.128Z,14.30
2023-05-19T02:05:44.640Z,14.30
2023-05-19T02:08:42.621Z,14.30
2023-05-19T02:11:19.630Z,14.20
2023-05-19T02:13:50.230Z,14.20
2023-05-19T02:16:17.758Z,14.20
2023-05-19T02:18:46.317Z,14.20
2023-05-19T02:21:13.587Z,14.20
2023-05-19T02:23:41.970Z,14.10
2023-05-19T02:26:08.887Z,14.10
2023-05-19T02:28:36.657Z,14.10
2023-05-19T02:31:06.368Z,14.10
2023-05-19T02:33:33.261Z,14.10
2023-05-19T02:36:00.432Z,14.00
2023-05-19T02:38:27.391Z,14.00
2023-05-19T02:40:54.275Z,14.00
2023-05-19T02:43:21.141Z,14.00
2023-05-19T02:45:48.041Z,14.00
2023-05-19T02:48:14.980Z,14.00
2023-05-19T02:50:43.013Z,14.00
2023-05-19T02:53:10.032Z,14.00
2023-05-19T02:55:37.395Z,14.00
2023-05-19T02:58:04.316Z,13.90
2023-05-19T03:00:31.395Z,13.80
2023-05-19T03:03:02.909Z,13.80
2023-05-19T03:05:31.516Z,13.70
2023-05-19T03:07:58.585Z,13.70
2023-05-19T03:10:25.780Z,13.70
2023-05-19T03:12:52.971Z,13.60
2023-05-19T03:15:20.878Z,13.50
2023-05-19T03:17:47.838Z,13.50
2023-05-19T03:20:15.876Z,13.40
2023-05-19T03:22:42.834Z,13.40
2023-05-19T03:25:10.463Z,13.30
2023-05-19T03:27:37.404Z,13.30
2023-05-19T03:30:06.599Z,13.30
2023-05-19T03:32:38.019Z,13.30
2023-05-19T03:35:05.719Z,13.30
2023-05-19T03:37:32.849Z,13.30
2023-05-19T03:40:00.209Z,13.30
2023-05-19T03:42:27.238Z,13.30
2023-05-19T03:44:54.157Z,13.30
2023-05-19T03:47:21.062Z,13.30
2023-05-19T03:49:59.456Z,13.30
2023-05-19T03:52:52.051Z,13.40
2023-05-19T03:55:25.724Z,13.40
2023-05-19T03:57:52.719Z,13.40
2023-05-19T04:00:20.259Z,13.40
2023-05-19T04:02:47.382Z,13.50
2023-05-19T04:05:14.883Z,13.50
2023-05-19T04:07:41.754Z,13.40
2023-05-19T04:10:08.877Z,13.40
2023-05-19T04:12:35.968Z,13.40
2023-05-19T04:15:02.980Z,13.40
2023-05-19T04:17:29.938Z,13.40
2023-05-19T04:19:56.891Z,13.40
2023-05-19T04:22:23.748Z,13.40
2023-05-19T04:24:51.813Z,13.40
2023-05-19T04:27:19.479Z,13.40
2023-05-19T04:29:48.340Z,13.30
2023-05-19T04:32:17.916Z,13.30
2023-05-19T04:34:47.693Z,13.30
2023-05-19T04:37:21.426Z,13.30
2023-05-19T04:39:48.554Z,13.30
2023-05-19T04:42:19.203Z,13.40
2023-05-19T04:44:46.931Z,13.30
2023-05-19T04:47:15.007Z,13.30
2023-05-19T04:49:42.139Z,13.30
2023-05-19T04:52:11.135Z,13.40
2023-05-19T04:54:39.422Z,13.50
2023-05-19T04:57:07.130Z,13.50
2023-05-19T04:59:37.715Z,13.60
2023-05-19T05:02:07.490Z,13.60
2023-05-19T05:04:36.322Z,13.70
2023-05-19T05:07:03.345Z,13.70
2023-05-19T05:09:30.442Z,13.70
2023-05-19T05:11:59.637Z,13.70
2023-05-19T05:14:27.162Z,13.80
2023-05-19T05:16:54.671Z,13.80
2023-05-19T05:19:24.201Z,13.80
2023-05-19T05:21:52.226Z,13.80
2023-05-19T05:24:19.862Z,13.90
2023-05-19T05:26:51.594Z,14.00
2023-05-19T05:29:18.531Z,14.10
2023-05-19T05:31:46.052Z,14.20
2023-05-19T05:34:13.376Z,14.20
2023-05-19T05:36:40.240Z,14.30
2023-05-19T05:39:08.240Z,14.30
2023-05-19T05:41:36.718Z,14.30
2023-05-19T05:44:09.995Z,14.30
2023-05-19T05:46:39.248Z,14.30
2023-05-19T05:49:06.495Z,14.40
2023-05-19T05:51:33.799Z,14.40
2023-05-19T05:54:02.673Z,14.40
2023-05-19T05:56:37.419Z,14.40
2023-05-19T05:59:06.227Z,14.40
2023-05-19T06:01:35.820Z,14.50
2023-05-19T06:04:05.052Z,14.60
2023-05-19T06:06:32.778Z,14.70
2023-05-19T06:09:01.798Z,14.80
2023-05-19T06:11:29.662Z,14.90
2023-05-19T06:13:58.832Z,15.00
2023-05-19T06:16:44.290Z,15.10
2023-05-19T06:19:11.753Z,15.10
2023-05-19T06:21:38.661Z,15.20
2023-05-19T06:24:06.080Z,15.30
2023-05-19T06:26:32.979Z,15.30
2023-05-19T06:29:00.447Z,15.40
2023-05-19T06:31:28.985Z,15.60
2023-05-19T06:33:59.013Z,15.70
2023-05-19T06:36:26.146Z,15.90
2023-05-19T06:38:56.371Z,16.10
2023-05-19T06:41:23.269Z,16.30
2023-05-19T06:43:51.830Z,16.50
2023-05-19T06:46:22.137Z,16.70
2023-05-19T06:48:49.282Z,16.90
2023-05-19T06:51:21.802Z,17.00
2023-05-19T06:53:52.034Z,17.20
2023-05-19T06:56:19.152Z,17.40
2023-05-19T06:58:46.305Z,17.70
2023-05-19T07:01:13.339Z,18.00
2023-05-19T07:03:46.771Z,18.10
2023-05-19T07:06:14.842Z,18.40
2023-05-19T07:08:42.109Z,18.70
2023-05-19T07:11:09.413Z,19.10
2023-05-19T07:13:36.289Z,19.50
2023-05-19T07:16:04.130Z,19.80
2023-05-19T07:18:32.002Z,20.00
2023-05-19T07:20:59.472Z,20.10
2023-05-19T07:23:26.582Z,20.20
2023-05-19T07:25:57.052Z,20.30
2023-05-19T07:28:24.597Z,20.40
2023-05-19T07:30:51.970Z,20.60
2023-05-19T07:33:19.087Z,20.80
2023-05-19T07:35:46.379Z,21.10
2023-05-19T07:38:13.405Z,21.20
2023-05-19T07:40:40.345Z,21.40
2023-05-19T07:43:07.382Z,21.50
2023-05-19T07:45:34.547Z,21.60
2023-05-19T07:48:01.493Z,21.70
2023-05-19T07:50:28.597Z,21.80
2023-05-19T07:52:55.941Z,21.90
2023-05-19T07:55:23.254Z,22.00
2023-05-19T07:57:51.006Z,22.10
2023-05-19T08:00:18.284Z,22.00
2023-05-19T08:02:45.737Z,22.10
2023-05-19T08:05:12.743Z,22.10
2023-05-19T08:07:39.612Z,22.00
2023-05-19T08:10:06.958Z,21.90
2023-05-19T08:12:33.797Z,21.90
2023-05-19T08:15:01.619Z,21.80
2023-05-19T08:17:28.989Z,21.80
2023-05-19T08:19:55.923Z,21.90
2023-05-19T08:22:23.241Z,21.80
2023-05-19T08:24:51.691Z,21.80
2023-05-19T08:27:18.590Z,21.80
2023-05-19T08:29:45.453Z,21.80
2023-05-19T08:32:13.369Z,21.80
2023-05-19T08:34:41.348Z,21.80
2023-05-19T08:37:08.351Z,21.80
2023-05-19T08:39:35.566Z,21.90
2023-05-19T08:42:02.578Z,22.10
2023-05-19T08:44:30.973Z,22.00
2023-05-19T08:47:02.848Z,22.10
2023-05-19T08:49:33.367Z,22.10
2023-05-19T08:52:24.203Z,22.20
2023-05-19T08:55:00.982Z,22.40
2023-05-19T08:57:28.874Z,22.50
2023-05-19T08:59:56.548Z,22.70
2023-05-19T09:02:24.086Z,22.70
2023-05-19T09:04:53.903Z,22.90
2023-05-19T09:07:23.007Z,22.90
2023-05-19T09:09:49.925Z,23.00
2023-05-19T09:12:16.969Z,23.20
2023-05-19T09:14:44.326Z,23.30
2023-05-19T09:17:12.031Z,23.50
2023-05-19T09:19:44.385Z,23.70
2023-05-19T09:22:11.868Z,23.90
2023-05-19T09:24:40.480Z,24.10
2023-05-19T09:27:07.736Z,24.30
2023-05-19T09:29:34.684Z,24.50
2023-05-19T09:32:04.458Z,24.80
2023-05-19T09:34:31.470Z,24.80
2023-05-19T09:36:59.922Z,24.80
2023-05-19T09:39:28.768Z,24.90
2023-05-19T09:41:58.747Z,25.20
2023-05-19T09:44:30.527Z,25.40
2023-05-19T09:46:58.911Z,25.70
2023-05-19T09:49:30.272Z,25.60
2023-05-19T09:51:58.734Z,25.50
2023-05-19T09:54:28.633Z,25.50
2023-05-19T09:57:00.049Z,25.60
2023-05-19T09:59:31.525Z,25.60
2023-05-19T10:02:00.832Z,25.60
2023-05-19T10:04:29.744Z,25.90
2023-05-19T10:07:01.178Z,26.00
2023-05-19T10:09:31.119Z,26.20
2023-05-19T10:11:59.158Z,26.50
2023-05-19T10:14:27.995Z,26.70
2023-05-19T10:16:59.609Z,26.90
2023-05-19T10:19:29.973Z,26.80
2023-05-19T10:21:57.675Z,26.90
2023-05-19T10:24:24.785Z,26.90
2023-05-19T10:27:14.567Z,26.90
2023-05-19T10:29:48.815Z,26.70
2023-05-19T10:32:22.036Z,26.50
2023-05-19T10:35:08.167Z,26.50
2023-05-19T10:37:39.590Z,26.50
2023-05-19T10:40:20.215Z,26.50
2023-05-19T10:43:14.712Z,26.40
2023-05-19T10:46:00.136Z,26.20
2023-05-19T10:48:27.051Z,26.10
2023-05-19T10:50:57.864Z,26.00
2023-05-19T10:53:31.621Z,25.80
2023-05-19T10:56:02.701Z,25.90
2023-05-19T10:58:39.689Z,26.20
2023-05-19T11:01:13.639Z,26.20
2023-05-19T11:03:54.345Z,26.40
2023-05-19T11:06:27.656Z,26.70
2023-05-19T11:09:02.464Z,27.00
2023-05-19T11:11:54.396Z,27.10
2023-05-19T11:14:27.687Z,26.90
2023-05-19T11:16:58.920Z,26.90
2023-05-19T11:19:30.817Z,26.90
2023-05-19T11:22:08.362Z,26.90
2023-05-19T11:24:53.394Z,26.90
2023-05-19T11:27:31.940Z,26.70
2023-05-19T11:30:00.536Z,26.70
2023-05-19T11:32:30.301Z,26.80
2023-05-19T11:34:58.025Z,26.80
2023-05-19T11:37:25.367Z,26.60
2023-05-19T11:39:53.265Z,26.50
2023-05-19T11:42:20.568Z,26.50
2023-05-19T11:44:47.876Z,26.50
2023-05-19T11:47:16.146Z,26.50
2023-05-19T11:49:48.547Z,26.60
2023-05-19T11:52:15.700Z,26.70
2023-05-19T11:54:42.630Z,26.80
2023-05-19T11:57:14.229Z,26.80
2023-05-19T11:59:45.645Z,27.00
2023-05-19T12:02:20.837Z,27.10
2023-05-19T12:04:49.606Z,27.20
2023-05-19T12:07:18.322Z,27.30
2023-05-19T12:09:49.473Z,27.40
2023-05-19T12:12:17.500Z,27.20
2023-05-19T12:14:46.351Z,27.10
2023-05-19T12:17:14.709Z,27.00
2023-05-19T12:19:43.636Z,26.80
2023-05-19T12:22:10.819Z,26.60
2023-05-19T12:24:38.909Z,26.40
2023-05-19T12:27:20.137Z,26.30
2023-05-19T12:29:54.915Z,26.20
2023-05-19T12:32:25.912Z,26.20
2023-05-19T12:34:53.757Z,26.00
2023-05-19T12:37:21.241Z,25.90
2023-05-19T12:39:51.406Z,25.90
2023-05-19T12:42:18.420Z,26.00
2023-05-19T12:44:51.589Z,26.00
2023-05-19T12:47:20.173Z,26.00
2023-05-19T12:50:09.333Z,25.80
2023-05-19T12:52:44.630Z,25.50
2023-05-19T12:55:12.461Z,25.20
2023-05-19T12:57:40.818Z,25.00
2023-05-19T13:00:21.885Z,24.80
2023-05-19T13:03:04.972Z,24.50
2023-05-19T13:05:38.255Z,24.40
2023-05-19T13:08:16.368Z,24.30
2023-05-19T13:10:44.752Z,24.30
2023-05-19T13:13:12.409Z,24.30
2023-05-19T13:15:42.091Z,24.20
2023-05-19T13:18:10.443Z,24.10
2023-05-19T13:20:38.545Z,24.10
2023-05-19T13:23:05.953Z,24.10
2023-05-19T13:25:36.563Z,24.20
2023-05-19T13:28:08.032Z,24.20
2023-05-19T13:30:37.014Z,24.00
2023-05-19T13:33:04.372Z,23.90
2023-05-19T13:35:37.642Z,23.80
2023-05-19T13:38:12.162Z,23.70
2023-05-19T13:40:40.132Z,23.70
2023-05-19T13:43:08.648Z,23.70
2023-05-19T13:45:35.807Z,23.80
2023-05-19T13:48:03.338Z,23.80
2023-05-19T13:50:30.584Z,23.80
2023-05-19T13:52:57.821Z,23.60
2023-05-19T13:55:28.317Z,23.60
2023-05-19T13:57:55.421Z,23.70
2023-05-19T14:00:23.122Z,23.80
2023-05-19T14:02:50.024Z,24.00
2023-05-19T14:05:17.136Z,24.00
2023-05-19T14:07:44.740Z,23.90
2023-05-19T14:10:12.034Z,23.90
2023-05-19T14:12:55.222Z,23.90
2023-05-19T14:15:26.750Z,23.90
2023-05-19T14:17:53.876Z,23.90
2023-05-19T14:20:21.048Z,23.90
2023-05-19T14:22:47.976Z,23.90
2023-05-19T14:25:14.960Z,24.00
2023-05-19T14:27:41.849Z,24.00
2023-05-19T14:30:09.220Z,24.00
2023-05-19T14:32:36.311Z,24.00
2023-05-19T14:35:03.897Z,24.00
2023-05-19T14:37:31.993Z,24.00
2023-05-19T14:39:59.535Z,23.90
2023-05-19T14:42:26.519Z,23.90
2023-05-19T14:44:53.492Z,23.90
2023-05-19T14:47:20.340Z,23.90
2023-05-19T14:49:47.298Z,23.90
2023-05-19T14:52:14.159Z,23.80
2023-05-19T14:54:41.109Z,23.60
2023-05-19T14:57:08.161Z,23.40
2023-05-19T14:59:38.016Z,23.30
2023-05-19T15:02:05.460Z,23.20
2023-05-19T15:04:32.404Z,23.10
2023-05-19T15:09:32.653Z,23.00
2023-05-19T15:12:01.347Z,23.00
2023-05-19T15:14:30.487Z,23.00
2023-05-19T15:16:58.496Z,23.00
2023-05-19T15:19:26.256Z,22.90
2023-05-19T15:21:53.482Z,22.80
2023-05-19T15:24:20.446Z,22.80
2023-05-19T15:26:47.583Z,22.80
2023-05-19T15:29:14.516Z,22.80
2023-05-19T15:31:41.823Z,22.90
2023-05-19T15:34:09.031Z,22.90
2023-05-19T15:36:35.902Z,23.10
2023-05-19T15:39:03.795Z,23.20
2023-05-19T15:41:30.992Z,23.20
2023-05-19T15:44:00.198Z,23.20
2023-05-19T15:46:27.464Z,23.20
2023-05-19T15:48:54.746Z,23.20
2023-05-19T15:51:21.835Z,23.20
2023-05-19T15:53:48.694Z,23.10
2023-05-19T15:56:15.922Z,23.10
2023-05-19T15:58:42.913Z,23.10
2023-05-19T16:01:09.952Z,23.10
2023-05-19T16:03:37.063Z,23.10
2023-05-19T16:06:04.255Z,23.10
2023-05-19T16:08:31.435Z,23.10
2023-05-19T16:10:58.311Z,23.10
2023-05-19T16:13:25.146Z,23.20
2023-05-19T16:15:52.741Z,23.30
2023-05-19T16:18:19.900Z,23.30
2023-05-19T16:20:46.870Z,23.20
2023-05-19T16:23:13.776Z,23.20
2023-05-19T16:25:41.504Z,23.20
2023-05-19T16:28:08.526Z,23.20
2023-05-19T16:30:35.847Z,23.20
2023-05-19T16:33:03.245Z,23.10
2023-05-19T16:35:31.035Z,23.00
2023-05-19T16:37:58.344Z,22.90
2023-05-19T16:40:25.352Z,22.90
2023-05-19T16:42:55.251Z,22.90
2023-05-19T16:45:22.198Z,22.90
2023-05-19T16:47:49.226Z,22.90
2023-05-19T16:50:16.346Z,22.90
2023-05-19T16:52:43.364Z,23.00
2023-05-19T16:55:11.089Z,22.90
2023-05-19T16:57:38.071Z,22.90
2023-05-19T17:00:05.290Z,23.00
2023-05-19T17:02:32.445Z,23.00
2023-05-19T17:04:59.589Z,23.00
2023-05-19T17:07:29.050Z,23.00
2023-05-19T17:09:56.257Z,23.00
2023-05-19T17:12:23.514Z,22.90
2023-05-19T17:14:52.081Z,22.90
2023-05-19T17:17:19.074Z,23.00
2023-05-19T17:19:46.830Z,23.10
2023-05-19T17:22:13.840Z,23.10
2023-05-19T17:24:41.262Z,23.20
2023-05-19T17:27:08.369Z,23.20
2023-05-19T17:29:35.388Z,23.20
2023-05-19T17:32:04.379Z,23.20
2023-05-19T17:34:31.644Z,23.20
2023-05-19T17:36:58.578Z,23.10
2023-05-19T17:39:25.600Z,23.00
2023-05-19T17:41:52.531Z,23.00
2023-05-19T17:44:19.540Z,22.90
2023-05-19T17:46:46.415Z,22.90
2023-05-19T17:49:13.936Z,22.90
2023-05-19T17:51:41.315Z,22.90
2023-05-19T17:54:08.543Z,22.90
2023-05-19T17:56:41.905Z,22.90
2023-05-19T17:59:09.361Z,22.90
2023-05-19T18:01:36.601Z,22.90
2023-05-19T18:04:03.849Z,22.90
2023-05-19T18:06:31.973Z,22.90
2023-05-19T18:09:01.457Z,22.90
2023-05-19T18:11:28.620Z,22.90
2023-05-19T18:13:55.647Z,22.90
2023-05-19T18:16:22.776Z,22.90
2023-05-19T18:18:50.556Z,22.90
2023-05-19T18:21:18.258Z,22.90
2023-05-19T18:23:46.251Z,22.80
2023-05-19T18:26:13.671Z,22.90
2023-05-19T18:28:41.642Z,22.80
2023-05-19T18:31:17.460Z,22.80
2023-05-19T18:33:45.799Z,22.80
2023-05-19T18:36:15.409Z,22.70
2023-05-19T18:38:42.446Z,22.70
2023-05-19T18:41:09.629Z,22.60
2023-05-19T18:43:36.623Z,22.60
2023-05-19T18:46:03.601Z,22.60
2023-05-19T18:48:31.523Z,22.60
2023-05-19T18:50:58.799Z,22.50
2023-05-19T18:53:26.088Z,22.50
2023-05-19T18:55:52.943Z,22.50
2023-05-19T18:58:19.981Z,22.50
2023-05-19T19:00:47.268Z,22.40
2023-05-19T19:03:14.364Z,22.40
2023-05-19T19:05:41.442Z,22.40
2023-05-19T19:08:08.626Z,22.40
2023-05-19T19:10:39.144Z,22.30
2023-05-19T19:13:06.390Z,22.20
2023-05-19T19:15:33.578Z,22.20
2023-05-19T19:18:00.571Z,22.20
2023-05-19T19:20:27.777Z,22.10
2023-05-19T19:22:54.919Z,22.10
2023-05-19T19:25:23.499Z,22.00
2023-05-19T19:27:51.316Z,21.90
2023-05-19T19:30:18.365Z,21.90
2023-05-19T19:32:45.662Z,21.90
2023-05-19T19:35:12.629Z,21.70
2023-05-19T19:37:39.553Z,21.70
2023-05-19T19:40:07.168Z,21.70
2023-05-19T19:42:34.246Z,21.60
2023-05-19T19:45:01.182Z,21.60
2023-05-19T19:47:28.144Z,21.50
2023-05-19T19:49:55.935Z,21.50
2023-05-19T19:52:22.875Z,21.50
2023-05-19T19:54:49.894Z,21.40
2023-05-19T19:57:17.355Z,21.30
2023-05-19T19:59:44.272Z,21.30
2023-05-19T20:02:11.612Z,21.20
2023-05-19T20:04:38.659Z,21.20
2023-05-19T20:07:05.877Z,21.10
2023-05-19T20:09:32.899Z,21.10
2023-05-19T20:11:59.749Z,21.00
2023-05-19T20:14:26.703Z,21.00
2023-05-19T20:16:53.713Z,20.90
2023-05-19T20:19:20.691Z,20.90
2023-05-19T20:21:47.676Z,20.80
2023-05-19T20:24:14.826Z,20.80
2023-05-19T20:26:41.827Z,20.80
2023-05-19T20:29:08.667Z,20.70
2023-05-19T20:31:35.606Z,20.60
2023-05-19T20:34:02.845Z,20.50
2023-05-19T20:36:29.737Z,20.50
2023-05-19T20:38:56.723Z,20.40
2023-05-19T20:41:23.705Z,20.30
2023-05-19T20:43:50.965Z,20.30
2023-05-19T20:46:18.071Z,20.20
2023-05-19T20:48:44.970Z,20.20
2023-05-19T20:51:11.907Z,20.10
2023-05-19T20:53:39.167Z,20.00
2023-05-19T20:56:07.346Z,20.00
2023-05-19T20:58:34.436Z,20.00
2023-05-19T21:01:01.348Z,19.90
2023-05-19T21:03:28.660Z,19.90
2023-05-19T21:05:55.975Z,19.80
2023-05-19T21:08:23.610Z,19.80
2023-05-19T21:10:51.223Z,19.80
2023-05-19T21:13:18.540Z,19.80
2023-05-19T21:15:45.587Z,19.80
2023-05-19T21:18:12.610Z,19.80
2023-05-19T21:20:39.863Z,19.70
2023-05-19T21:23:06.974Z,19.70
2023-05-19T21:25:33.983Z,19.70
2023-05-19T21:28:01.129Z,19.70
2023-05-19T21:30:28.605Z,19.60
2023-05-19T21:32:55.523Z,19.60
2023-05-19T21:35:22.433Z,19.60
2023-05-19T21:37:49.557Z,19.60
2023-05-19T21:40:16.475Z,19.50
2023-05-19T21:42:43.374Z,19.50
2023-05-19T21:45:10.900Z,19.40
2023-05-19T21:47:37.951Z,19.40
2023-05-19T21:50:05.461Z,19.40
2023-05-19T21:52:32.371Z,19.40
2023-05-19T21:54:59.227Z,19.40
2023-05-19T21:57:26.153Z,19.40
2023-05-19T21:59:53.055Z,19.40
2023-05-19T22:02:19.982Z,19.40
2023-05-19T22:04:47.019Z,19.40
2023-05-19T22:07:13.886Z,19.30
2023-05-19T22:09:40.951Z,19.30
2023-05-19T22:12:08.084Z,19.30
2023-05-19T22:14:35.901Z,19.20
2023-05-19T22:17:02.877Z,19.20
2023-05-19T22:19:29.800Z,19.20
2023-05-19T22:22:09.926Z,19.20
2023-05-19T22:24:40.640Z,19.20
2023-05-19T22:27:08.281Z,19.20
2023-05-19T22:29:37.531Z,19.10
2023-05-19T22:32:06.798Z,19.20
2023-05-19T22:34:33.829Z,19.20
2023-05-19T22:37:00.720Z,19.10
2023-05-19T22:39:27.660Z,19.00
2023-05-19T22:41:54.524Z,19.00
2023-05-19T22:44:21.556Z,18.90
2023-05-19T22:46:48.477Z,18.90
2023-05-19T22:49:15.658Z,18.90
2023-05-19T22:51:42.792Z,18.90
2023-05-19T22:54:10.482Z,18.80
2023-05-19T22:56:37.373Z,18.80
2023-05-19T22:59:04.204Z,18.80
2023-05-19T23:01:31.275Z,18.80
2023-05-19T23:03:58.193Z,18.70
2023-05-19T23:06:25.123Z,18.80
2023-05-19T23:09:02.289Z,18.70
2023-05-19T23:11:29.271Z,18.70
2023-05-19T23:13:56.437Z,18.80
2023-05-19T23:16:23.470Z,18.70
2023-05-19T23:18:50.348Z,18.70
2023-05-19T23:21:17.280Z,18.70
2023-05-19T23:23:44.490Z,18.70
2023-05-19T23:26:13.434Z,18.70
2023-05-19T23:28:42.288Z,18.70
2023-05-19T23:31:09.817Z,18.70
2023-05-19T23:33:36.810Z,18.60
2023-05-19T23:36:08.801Z,18.60
2023-05-19T23:38:36.881Z,18.60
2023-05-19T23:41:04.891Z,18.60
2023-05-19T23:43:32.546Z,18.50
2023-05-19T23:45:59.936Z,18.50
2023-05-19T23:48:29.116Z,18.50
2023-05-19T23:50:56.916Z,18.40
2023-05-19T23:53:24.369Z,18.40
2023-05-19T23:55:51.629Z,18.40
2023-05-19T23:58:18.613Z,18.40
